sensor_id;sensor_type;location;lat;lon;timestamp;temperature;humidity
12655;DHT22;6392;44.644;11.448;2023-12-20T00:00:35;4.00;99.90
12655;DHT22;6392;44.644;11.448;2023-12-20T00:03:03;3.90;99.90
12655;DHT22;6392;44.644;11.448;2023-12-20T00:05:30;4.00;99.90
12655;DHT22;6392;44.644;11.448;2023-12-20T00:07:58;4.20;99.90
12655;DHT22;6392;44.644;11.448;2023-12-20T00:10:25;4.40;99.90
12655;DHT22;6392;44.644;11.448;2023-12-20T00:12:52;4.50;99.90
12655;DHT22;6392;44.644;11.448;2023-12-20T00:15:20;4.60;99.90
12655;DHT22;6392;44.644;11.448;2023-12-20T00:17:47;4.60;99.90
12655;DHT22;6392;44.644;11.448;2023-12-20T00:20:14;4.70;99.90
12655;DHT22;6392;44.644;11.448;2023-12-20T00:22:40;4.80;99.90
12655;DHT22;6392;44.644;11.448;2023-12-20T00:25:08;4.80;99.90
12655;DHT22;6392;44.644;11.448;2023-12-20T00:27:35;4.80;99.90
12655;DHT22;6392;44.644;11.448;2023-12-20T00:30:02;4.80;99.90
12655;DHT22;6392;44.644;11.448;2023-12-20T00:32:30;4.70;99.90
12655;DHT22;6392;44.644;11.448;2023-12-20T00:34:57;4.50;99.90
12655;DHT22;6392;44.644;11.448;2023-12-20T00:37:24;4.40;99.90
12655;DHT22;6392;44.644;11.448;2023-12-20T00:39:51;4.20;99.90
12655;DHT22;6392;44.644;11.448;2023-12-20T00:42:18;4.00;99.90
12655;DHT22;6392;44.644;11.448;2023-12-20T00:44:46;3.90;99.90
12655;DHT22;6392;44.644;11.448;2023-12-20T00:47:13;3.80;99.90
12655;DHT22;6392;44.644;11.448;2023-12-20T00:49:41;3.70;99.90
12655;DHT22;6392;44.644;11.448;2023-12-20T00:52:08;3.70;99.90
12655;DHT22;6392;44.644;11.448;2023-12-20T00:54:35;3.70;99.90
12655;DHT22;6392;44.644;11.448;2023-12-20T00:57:02;3.70;99.90
12655;DHT22;6392;44.644;11.448;2023-12-20T00:59:29;3.80;99.90
12655;DHT22;6392;44.644;11.448;2023-12-20T01:01:56;3.80;99.90
12655;DHT22;6392;44.644;11.448;2023-12-20T01:04:23;3.80;99.90
12655;DHT22;6392;44.644;11.448;2023-12-20T01:06:52;3.80;99.90
12655;DHT22;6392;44.644;11.448;2023-12-20T01:09:19;3.80;99.90
12655;DHT22;6392;44.644;11.448;2023-12-20T01:11:49;3.90;99.90
12655;DHT22;6392;44.644;11.448;2023-12-20T01:14:16;3.80;99.90
12655;DHT22;6392;44.644;11.448;2023-12-20T01:16:42;3.70;99.90
12655;DHT22;6392;44.644;11.448;2023-12-20T01:19:09;3.70;99.90
12655;DHT22;6392;44.644;11.448;2023-12-20T01:21:36;3.60;99.90
12655;DHT22;6392;44.644;11.448;2023-12-20T01:24:05;3.60;99.90
12655;DHT22;6392;44.644;11.448;2023-12-20T01:26:32;3.50;99.90
12655;DHT22;6392;44.644;11.448;2023-12-20T01:29:01;3.50;99.90
12655;DHT22;6392;44.644;11.448;2023-12-20T01:31:28;3.50;99.90
12655;DHT22;6392;44.644;11.448;2023-12-20T01:33:55;3.50;99.90
12655;DHT22;6392;44.644;11.448;2023-12-20T01:36:22;3.40;99.90
12655;DHT22;6392;44.644;11.448;2023-12-20T01:38:49;3.30;99.90
12655;DHT22;6392;44.644;11.448;2023-12-20T01:41:17;3.20;99.90
12655;DHT22;6392;44.644;11.448;2023-12-20T01:43:44;3.20;99.90
12655;DHT22;6392;44.644;11.448;2023-12-20T01:46:12;3.20;99.90
12655;DHT22;6392;44.644;11.448;2023-12-20T01:48:39;3.30;99.90
12655;DHT22;6392;44.644;11.448;2023-12-20T01:51:06;3.40;99.90
12655;DHT22;6392;44.644;11.448;2023-12-20T01:53:34;3.50;99.90
12655;DHT22;6392;44.644;11.448;2023-12-20T01:56:01;3.40;99.90
12655;DHT22;6392;44.644;11.448;2023-12-20T01:58:30;3.40;99.90
12655;DHT22;6392;44.644;11.448;2023-12-20T02:00:57;3.40;99.90
12655;DHT22;6392;44.644;11.448;2023-12-20T02:03:25;3.40;99.90
12655;DHT22;6392;44.644;11.448;2023-12-20T02:05:53;3.40;99.90
12655;DHT22;6392;44.644;11.448;2023-12-20T02:08:20;3.40;99.90
12655;DHT22;6392;44.644;11.448;2023-12-20T02:10:47;3.40;99.90
12655;DHT22;6392;44.644;11.448;2023-12-20T02:13:14;3.40;99.90
12655;DHT22;6392;44.644;11.448;2023-12-20T02:15:43;3.50;99.90
12655;DHT22;6392;44.644;11.448;2023-12-20T02:18:10;3.50;99.90
12655;DHT22;6392;44.644;11.448;2023-12-20T02:20:40;3.50;99.90
12655;DHT22;6392;44.644;11.448;2023-12-20T02:23:09;3.50;99.90
12655;DHT22;6392;44.644;11.448;2023-12-20T02:25:36;3.40;99.90
12655;DHT22;6392;44.644;11.448;2023-12-20T02:28:04;3.30;99.90
12655;DHT22;6392;44.644;11.448;2023-12-20T02:30:32;3.20;99.90
12655;DHT22;6392;44.644;11.448;2023-12-20T02:33:00;3.10;99.90
12655;DHT22;6392;44.644;11.448;2023-12-20T02:35:27;3.10;99.90
12655;DHT22;6392;44.644;11.448;2023-12-20T02:37:54;3.20;99.90
12655;DHT22;6392;44.644;11.448;2023-12-20T02:40:23;3.20;99.90
12655;DHT22;6392;44.644;11.448;2023-12-20T02:42:50;3.30;99.90
12655;DHT22;6392;44.644;11.448;2023-12-20T02:45:17;3.30;99.90
12655;DHT22;6392;44.644;11.448;2023-12-20T02:47:44;3.40;99.90
12655;DHT22;6392;44.644;11.448;2023-12-20T02:50:11;3.40;99.90
12655;DHT22;6392;44.644;11.448;2023-12-20T02:52:38;3.40;99.90
12655;DHT22;6392;44.644;11.448;2023-12-20T02:55:05;3.50;99.90
12655;DHT22;6392;44.644;11.448;2023-12-20T02:57:34;3.60;99.90
12655;DHT22;6392;44.644;11.448;2023-12-20T03:00:02;3.60;99.90
12655;DHT22;6392;44.644;11.448;2023-12-20T03:02:29;3.70;99.90
12655;DHT22;6392;44.644;11.448;2023-12-20T03:04:56;3.70;99.90
12655;DHT22;6392;44.644;11.448;2023-12-20T03:07:25;3.70;99.90
12655;DHT22;6392;44.644;11.448;2023-12-20T03:09:52;3.70;99.90
12655;DHT22;6392;44.644;11.448;2023-12-20T03:12:19;3.60;99.90
12655;DHT22;6392;44.644;11.448;2023-12-20T03:14:48;3.40;99.90
12655;DHT22;6392;44.644;11.448;2023-12-20T03:17:15;3.30;99.90
12655;DHT22;6392;44.644;11.448;2023-12-20T03:19:42;3.10;99.90
12655;DHT22;6392;44.644;11.448;2023-12-20T03:22:09;3.00;99.90
12655;DHT22;6392;44.644;11.448;2023-12-20T03:24:36;3.00;99.90
12655;DHT22;6392;44.644;11.448;2023-12-20T03:27:04;2.90;99.90
12655;DHT22;6392;44.644;11.448;2023-12-20T03:29:31;2.80;99.90
12655;DHT22;6392;44.644;11.448;2023-12-20T03:31:59;2.70;99.90
12655;DHT22;6392;44.644;11.448;2023-12-20T03:34:26;2.70;99.90
12655;DHT22;6392;44.644;11.448;2023-12-20T03:36:54;2.60;99.90
12655;DHT22;6392;44.644;11.448;2023-12-20T03:39:21;2.50;99.90
12655;DHT22;6392;44.644;11.448;2023-12-20T03:41:48;2.50;99.90
12655;DHT22;6392;44.644;11.448;2023-12-20T03:44:15;2.40;99.90
12655;DHT22;6392;44.644;11.448;2023-12-20T03:46:43;2.30;99.90
12655;DHT22;6392;44.644;11.448;2023-12-20T03:49:12;2.30;99.90
12655;DHT22;6392;44.644;11.448;2023-12-20T03:51:39;2.40;99.90
12655;DHT22;6392;44.644;11.448;2023-12-20T03:54:07;2.30;99.90
12655;DHT22;6392;44.644;11.448;2023-12-20T03:56:34;2.30;99.90
12655;DHT22;6392;44.644;11.448;2023-12-20T03:59:01;2.40;99.90
12655;DHT22;6392;44.644;11.448;2023-12-20T04:01:28;2.40;99.90
12655;DHT22;6392;44.644;11.448;2023-12-20T04:03:55;2.30;99.90
12655;DHT22;6392;44.644;11.448;2023-12-20T04:06:24;2.30;99.90
12655;DHT22;6392;44.644;11.448;2023-12-20T04:08:51;2.50;99.90
12655;DHT22;6392;44.644;11.448;2023-12-20T04:11:18;2.70;99.90
12655;DHT22;6392;44.644;11.448;2023-12-20T04:13:45;2.80;99.90
12655;DHT22;6392;44.644;11.448;2023-12-20T04:16:12;2.80;99.90
12655;DHT22;6392;44.644;11.448;2023-12-20T04:18:39;2.60;99.90
12655;DHT22;6392;44.644;11.448;2023-12-20T04:21:06;2.40;99.90
12655;DHT22;6392;44.644;11.448;2023-12-20T04:23:34;2.20;99.90
12655;DHT22;6392;44.644;11.448;2023-12-20T04:26:02;2.10;99.90
12655;DHT22;6392;44.644;11.448;2023-12-20T04:28:29;2.00;99.90
12655;DHT22;6392;44.644;11.448;2023-12-20T04:30:56;1.90;99.90
12655;DHT22;6392;44.644;11.448;2023-12-20T04:33:23;1.90;99.90
12655;DHT22;6392;44.644;11.448;2023-12-20T04:35:50;2.00;99.90
12655;DHT22;6392;44.644;11.448;2023-12-20T04:38:17;2.10;99.90
12655;DHT22;6392;44.644;11.448;2023-12-20T04:40:46;2.10;99.90
12655;DHT22;6392;44.644;11.448;2023-12-20T04:43:13;2.10;99.90
12655;DHT22;6392;44.644;11.448;2023-12-20T04:45:41;2.00;99.90
12655;DHT22;6392;44.644;11.448;2023-12-20T04:48:08;2.00;99.90
12655;DHT22;6392;44.644;11.448;2023-12-20T04:50:35;2.10;99.90
12655;DHT22;6392;44.644;11.448;2023-12-20T04:53:02;2.10;99.90
12655;DHT22;6392;44.644;11.448;2023-12-20T04:55:29;2.30;99.90
12655;DHT22;6392;44.644;11.448;2023-12-20T04:57:57;2.40;99.90
12655;DHT22;6392;44.644;11.448;2023-12-20T05:00:24;2.50;99.90
12655;DHT22;6392;44.644;11.448;2023-12-20T05:02:51;2.60;99.90
12655;DHT22;6392;44.644;11.448;2023-12-20T05:05:19;2.60;99.90
12655;DHT22;6392;44.644;11.448;2023-12-20T05:07:46;2.60;99.90
12655;DHT22;6392;44.644;11.448;2023-12-20T05:10:13;2.70;99.90
12655;DHT22;6392;44.644;11.448;2023-12-20T05:12:40;2.60;99.90
12655;DHT22;6392;44.644;11.448;2023-12-20T05:15:09;2.60;99.90
12655;DHT22;6392;44.644;11.448;2023-12-20T05:17:36;2.60;99.90
12655;DHT22;6392;44.644;11.448;2023-12-20T05:20:04;2.60;99.90
12655;DHT22;6392;44.644;11.448;2023-12-20T05:22:31;2.50;99.90
12655;DHT22;6392;44.644;11.448;2023-12-20T05:24:58;2.50;99.90
12655;DHT22;6392;44.644;11.448;2023-12-20T05:27:26;2.50;99.90
12655;DHT22;6392;44.644;11.448;2023-12-20T05:29:53;2.50;99.90
12655;DHT22;6392;44.644;11.448;2023-12-20T05:32:24;2.60;99.90
12655;DHT22;6392;44.644;11.448;2023-12-20T05:34:52;2.70;99.90
12655;DHT22;6392;44.644;11.448;2023-12-20T05:37:19;2.70;99.90
12655;DHT22;6392;44.644;11.448;2023-12-20T05:39:46;2.90;99.90
12655;DHT22;6392;44.644;11.448;2023-12-20T05:42:13;2.90;99.90
12655;DHT22;6392;44.644;11.448;2023-12-20T05:44:40;3.00;99.90
12655;DHT22;6392;44.644;11.448;2023-12-20T05:47:07;3.00;99.90
12655;DHT22;6392;44.644;11.448;2023-12-20T05:49:35;3.10;99.90
12655;DHT22;6392;44.644;11.448;2023-12-20T05:52:02;3.20;99.90
12655;DHT22;6392;44.644;11.448;2023-12-20T05:54:30;3.20;99.90
12655;DHT22;6392;44.644;11.448;2023-12-20T05:56:57;3.20;99.90
12655;DHT22;6392;44.644;11.448;2023-12-20T05:59:24;3.30;99.90
12655;DHT22;6392;44.644;11.448;2023-12-20T06:01:51;3.30;99.90
12655;DHT22;6392;44.644;11.448;2023-12-20T06:04:18;3.30;99.90
12655;DHT22;6392;44.644;11.448;2023-12-20T06:06:47;3.40;99.90
12655;DHT22;6392;44.644;11.448;2023-12-20T06:09:14;3.40;99.90
12655;DHT22;6392;44.644;11.448;2023-12-20T06:11:42;3.40;99.90
12655;DHT22;6392;44.644;11.448;2023-12-20T06:14:09;3.30;99.90
12655;DHT22;6392;44.644;11.448;2023-12-20T06:16:36;3.30;99.90
12655;DHT22;6392;44.644;11.448;2023-12-20T06:19:03;3.30;99.90
12655;DHT22;6392;44.644;11.448;2023-12-20T06:21:30;3.20;99.90
12655;DHT22;6392;44.644;11.448;2023-12-20T06:24:00;3.10;99.90
12655;DHT22;6392;44.644;11.448;2023-12-20T06:26:27;3.00;99.90
12655;DHT22;6392;44.644;11.448;2023-12-20T06:28:54;2.90;99.90
12655;DHT22;6392;44.644;11.448;2023-12-20T06:31:21;2.80;99.90
12655;DHT22;6392;44.644;11.448;2023-12-20T06:33:48;2.80;99.90
12655;DHT22;6392;44.644;11.448;2023-12-20T06:36:22;2.80;99.90
12655;DHT22;6392;44.644;11.448;2023-12-20T06:38:50;2.80;99.90
12655;DHT22;6392;44.644;11.448;2023-12-20T06:41:18;2.70;99.90
12655;DHT22;6392;44.644;11.448;2023-12-20T06:43:45;2.70;99.90
12655;DHT22;6392;44.644;11.448;2023-12-20T06:46:12;2.80;99.90
12655;DHT22;6392;44.644;11.448;2023-12-20T06:48:39;2.90;99.90
12655;DHT22;6392;44.644;11.448;2023-12-20T06:51:10;3.00;99.90
12655;DHT22;6392;44.644;11.448;2023-12-20T06:53:37;3.00;99.90
12655;DHT22;6392;44.644;11.448;2023-12-20T06:56:05;3.10;99.90
12655;DHT22;6392;44.644;11.448;2023-12-20T06:58:34;3.10;99.90
12655;DHT22;6392;44.644;11.448;2023-12-20T07:01:03;3.10;99.90
12655;DHT22;6392;44.644;11.448;2023-12-20T07:03:30;3.10;99.90
12655;DHT22;6392;44.644;11.448;2023-12-20T07:05:58;3.10;99.90
12655;DHT22;6392;44.644;11.448;2023-12-20T07:08:25;3.00;99.90
12655;DHT22;6392;44.644;11.448;2023-12-20T07:10:52;3.00;99.90
12655;DHT22;6392;44.644;11.448;2023-12-20T07:13:19;3.00;99.90
12655;DHT22;6392;44.644;11.448;2023-12-20T07:15:49;3.00;99.90
12655;DHT22;6392;44.644;11.448;2023-12-20T07:18:16;3.10;99.90
12655;DHT22;6392;44.644;11.448;2023-12-20T07:20:43;3.10;99.90
12655;DHT22;6392;44.644;11.448;2023-12-20T07:23:10;3.10;99.90
12655;DHT22;6392;44.644;11.448;2023-12-20T07:25:37;3.10;99.90
12655;DHT22;6392;44.644;11.448;2023-12-20T07:28:05;3.10;99.90
12655;DHT22;6392;44.644;11.448;2023-12-20T07:30:32;3.20;99.90
12655;DHT22;6392;44.644;11.448;2023-12-20T07:33:00;3.20;99.90
12655;DHT22;6392;44.644;11.448;2023-12-20T07:35:28;3.30;99.90
12655;DHT22;6392;44.644;11.448;2023-12-20T07:37:55;3.40;99.90
12655;DHT22;6392;44.644;11.448;2023-12-20T07:40:23;3.50;99.90
12655;DHT22;6392;44.644;11.448;2023-12-20T07:42:50;3.50;99.90
12655;DHT22;6392;44.644;11.448;2023-12-20T07:45:17;3.60;99.90
12655;DHT22;6392;44.644;11.448;2023-12-20T07:47:44;3.70;99.90
12655;DHT22;6392;44.644;11.448;2023-12-20T07:50:13;3.80;99.90
12655;DHT22;6392;44.644;11.448;2023-12-20T07:52:40;3.90;99.90
12655;DHT22;6392;44.644;11.448;2023-12-20T07:55:07;4.00;99.90
12655;DHT22;6392;44.644;11.448;2023-12-20T07:57:34;4.10;99.90
12655;DHT22;6392;44.644;11.448;2023-12-20T08:00:02;4.20;99.90
12655;DHT22;6392;44.644;11.448;2023-12-20T08:02:29;4.30;99.90
12655;DHT22;6392;44.644;11.448;2023-12-20T08:04:56;4.30;99.90
12655;DHT22;6392;44.644;11.448;2023-12-20T08:07:25;4.40;99.90
12655;DHT22;6392;44.644;11.448;2023-12-20T08:09:52;4.40;99.90
12655;DHT22;6392;44.644;11.448;2023-12-20T08:12:20;4.40;99.90
12655;DHT22;6392;44.644;11.448;2023-12-20T08:14:47;4.40;99.90
12655;DHT22;6392;44.644;11.448;2023-12-20T08:17:14;4.40;99.90
12655;DHT22;6392;44.644;11.448;2023-12-20T08:19:41;4.50;99.90
12655;DHT22;6392;44.644;11.448;2023-12-20T08:22:08;4.50;99.90
12655;DHT22;6392;44.644;11.448;2023-12-20T08:24:37;4.60;99.90
12655;DHT22;6392;44.644;11.448;2023-12-20T08:27:04;4.60;99.90
12655;DHT22;6392;44.644;11.448;2023-12-20T08:29:31;4.60;99.90
12655;DHT22;6392;44.644;11.448;2023-12-20T08:31:57;4.70;99.90
12655;DHT22;6392;44.644;11.448;2023-12-20T08:34:24;4.70;99.90
12655;DHT22;6392;44.644;11.448;2023-12-20T08:36:52;4.70;99.90
12655;DHT22;6392;44.644;11.448;2023-12-20T08:39:19;4.70;99.90
12655;DHT22;6392;44.644;11.448;2023-12-20T08:41:47;4.70;99.90
12655;DHT22;6392;44.644;11.448;2023-12-20T08:44:14;4.70;99.90
12655;DHT22;6392;44.644;11.448;2023-12-20T08:46:41;4.80;99.90
12655;DHT22;6392;44.644;11.448;2023-12-20T08:49:08;4.90;99.90
12655;DHT22;6392;44.644;11.448;2023-12-20T08:51:36;4.90;99.90
12655;DHT22;6392;44.644;11.448;2023-12-20T08:54:05;4.90;99.90
12655;DHT22;6392;44.644;11.448;2023-12-20T08:56:34;5.00;99.90
12655;DHT22;6392;44.644;11.448;2023-12-20T08:59:02;5.00;99.90
12655;DHT22;6392;44.644;11.448;2023-12-20T09:01:29;5.10;99.90
12655;DHT22;6392;44.644;11.448;2023-12-20T09:03:56;5.20;99.90
12655;DHT22;6392;44.644;11.448;2023-12-20T09:06:23;5.20;99.90
12655;DHT22;6392;44.644;11.448;2023-12-20T09:08:51;5.30;99.90
12655;DHT22;6392;44.644;11.448;2023-12-20T09:11:18;5.30;99.90
12655;DHT22;6392;44.644;11.448;2023-12-20T09:13:45;5.40;99.90
12655;DHT22;6392;44.644;11.448;2023-12-20T09:16:14;5.50;99.90
12655;DHT22;6392;44.644;11.448;2023-12-20T09:18:41;5.50;99.90
12655;DHT22;6392;44.644;11.448;2023-12-20T09:21:08;5.60;99.90
12655;DHT22;6392;44.644;11.448;2023-12-20T09:23:35;5.70;99.90
12655;DHT22;6392;44.644;11.448;2023-12-20T09:26:03;5.70;99.90
12655;DHT22;6392;44.644;11.448;2023-12-20T09:28:30;5.80;99.90
12655;DHT22;6392;44.644;11.448;2023-12-20T09:31:03;5.90;99.90
12655;DHT22;6392;44.644;11.448;2023-12-20T09:33:32;5.90;99.90
12655;DHT22;6392;44.644;11.448;2023-12-20T09:35:59;6.00;99.90
12655;DHT22;6392;44.644;11.448;2023-12-20T09:38:26;6.00;99.90
12655;DHT22;6392;44.644;11.448;2023-12-20T09:40:53;6.00;99.90
12655;DHT22;6392;44.644;11.448;2023-12-20T09:43:24;6.00;99.90
12655;DHT22;6392;44.644;11.448;2023-12-20T09:45:53;6.10;99.90
12655;DHT22;6392;44.644;11.448;2023-12-20T09:48:20;6.10;99.90
12655;DHT22;6392;44.644;11.448;2023-12-20T09:50:49;6.10;99.90
12655;DHT22;6392;44.644;11.448;2023-12-20T09:53:16;6.10;99.90
12655;DHT22;6392;44.644;11.448;2023-12-20T09:55:44;6.10;99.90
12655;DHT22;6392;44.644;11.448;2023-12-20T09:58:11;6.10;99.90
12655;DHT22;6392;44.644;11.448;2023-12-20T10:00:38;6.20;99.90
12655;DHT22;6392;44.644;11.448;2023-12-20T10:03:06;6.20;99.90
12655;DHT22;6392;44.644;11.448;2023-12-20T10:05:34;6.30;99.90
12655;DHT22;6392;44.644;11.448;2023-12-20T10:08:03;6.40;99.90
12655;DHT22;6392;44.644;11.448;2023-12-20T10:10:30;6.40;99.90
12655;DHT22;6392;44.644;11.448;2023-12-20T10:13:05;6.40;99.90
12655;DHT22;6392;44.644;11.448;2023-12-20T10:15:32;6.40;99.90
12655;DHT22;6392;44.644;11.448;2023-12-20T10:18:00;6.50;99.90
12655;DHT22;6392;44.644;11.448;2023-12-20T10:20:27;6.50;99.90
12655;DHT22;6392;44.644;11.448;2023-12-20T10:22:55;6.60;99.90
12655;DHT22;6392;44.644;11.448;2023-12-20T10:25:24;6.60;99.90
12655;DHT22;6392;44.644;11.448;2023-12-20T10:28:09;6.70;99.90
12655;DHT22;6392;44.644;11.448;2023-12-20T10:30:36;6.70;99.90
12655;DHT22;6392;44.644;11.448;2023-12-20T10:33:03;6.80;99.90
12655;DHT22;6392;44.644;11.448;2023-12-20T10:35:32;6.80;99.90
12655;DHT22;6392;44.644;11.448;2023-12-20T10:38:04;6.80;99.90
12655;DHT22;6392;44.644;11.448;2023-12-20T10:40:34;6.90;99.90
12655;DHT22;6392;44.644;11.448;2023-12-20T10:43:03;6.90;99.90
12655;DHT22;6392;44.644;11.448;2023-12-20T10:45:30;7.00;99.90
12655;DHT22;6392;44.644;11.448;2023-12-20T10:47:58;7.00;99.90
12655;DHT22;6392;44.644;11.448;2023-12-20T10:50:27;7.00;99.90
12655;DHT22;6392;44.644;11.448;2023-12-20T10:52:55;7.00;99.90
12655;DHT22;6392;44.644;11.448;2023-12-20T10:55:22;7.10;99.90
12655;DHT22;6392;44.644;11.448;2023-12-20T10:57:51;7.10;99.90
12655;DHT22;6392;44.644;11.448;2023-12-20T11:00:19;7.10;99.90
12655;DHT22;6392;44.644;11.448;2023-12-20T11:02:49;7.20;99.90
12655;DHT22;6392;44.644;11.448;2023-12-20T11:05:25;7.20;99.90
12655;DHT22;6392;44.644;11.448;2023-12-20T11:07:58;7.30;99.90
12655;DHT22;6392;44.644;11.448;2023-12-20T11:10:31;7.30;99.90
12655;DHT22;6392;44.644;11.448;2023-12-20T11:13:06;7.30;99.90
12655;DHT22;6392;44.644;11.448;2023-12-20T11:15:35;7.40;99.90
12655;DHT22;6392;44.644;11.448;2023-12-20T11:18:04;7.40;99.90
12655;DHT22;6392;44.644;11.448;2023-12-20T11:20:36;7.50;99.90
12655;DHT22;6392;44.644;11.448;2023-12-20T11:23:04;7.50;99.90
12655;DHT22;6392;44.644;11.448;2023-12-20T11:25:49;7.60;99.90
12655;DHT22;6392;44.644;11.448;2023-12-20T11:28:23;7.60;99.90
12655;DHT22;6392;44.644;11.448;2023-12-20T11:30:51;7.70;99.90
12655;DHT22;6392;44.644;11.448;2023-12-20T11:33:22;7.70;99.90
12655;DHT22;6392;44.644;11.448;2023-12-20T11:35:49;7.70;99.90
12655;DHT22;6392;44.644;11.448;2023-12-20T11:38:16;7.80;99.90
12655;DHT22;6392;44.644;11.448;2023-12-20T11:40:43;7.80;99.90
12655;DHT22;6392;44.644;11.448;2023-12-20T11:43:10;7.80;99.90
12655;DHT22;6392;44.644;11.448;2023-12-20T11:45:49;7.90;99.90
12655;DHT22;6392;44.644;11.448;2023-12-20T11:48:17;7.90;99.90
12655;DHT22;6392;44.644;11.448;2023-12-20T11:50:45;8.00;99.90
12655;DHT22;6392;44.644;11.448;2023-12-20T11:53:12;8.00;99.90
12655;DHT22;6392;44.644;11.448;2023-12-20T11:55:39;8.00;99.90
12655;DHT22;6392;44.644;11.448;2023-12-20T11:58:06;8.00;99.90
12655;DHT22;6392;44.644;11.448;2023-12-20T12:00:35;8.10;99.90
12655;DHT22;6392;44.644;11.448;2023-12-20T12:03:03;8.10;99.90
12655;DHT22;6392;44.644;11.448;2023-12-20T12:05:31;8.20;99.90
12655;DHT22;6392;44.644;11.448;2023-12-20T12:07:58;8.10;99.90
12655;DHT22;6392;44.644;11.448;2023-12-20T12:10:26;8.20;99.90
12655;DHT22;6392;44.644;11.448;2023-12-20T12:12:53;8.20;99.90
12655;DHT22;6392;44.644;11.448;2023-12-20T12:15:20;8.20;99.90
12655;DHT22;6392;44.644;11.448;2023-12-20T12:17:53;8.20;99.90
12655;DHT22;6392;44.644;11.448;2023-12-20T12:20:23;8.30;99.90
12655;DHT22;6392;44.644;11.448;2023-12-20T12:22:58;8.30;99.90
12655;DHT22;6392;44.644;11.448;2023-12-20T12:25:25;8.30;99.90
12655;DHT22;6392;44.644;11.448;2023-12-20T12:27:53;8.40;99.90
12655;DHT22;6392;44.644;11.448;2023-12-20T12:30:20;8.40;99.90
12655;DHT22;6392;44.644;11.448;2023-12-20T12:32:47;8.40;99.90
12655;DHT22;6392;44.644;11.448;2023-12-20T12:35:15;8.40;99.90
12655;DHT22;6392;44.644;11.448;2023-12-20T12:37:43;8.40;99.90
12655;DHT22;6392;44.644;11.448;2023-12-20T12:40:11;8.30;99.90
12655;DHT22;6392;44.644;11.448;2023-12-20T12:42:39;8.30;99.90
12655;DHT22;6392;44.644;11.448;2023-12-20T12:45:07;8.30;99.90
12655;DHT22;6392;44.644;11.448;2023-12-20T12:47:34;8.40;99.90
12655;DHT22;6392;44.644;11.448;2023-12-20T12:50:01;8.30;99.90
12655;DHT22;6392;44.644;11.448;2023-12-20T12:52:30;8.30;99.90
12655;DHT22;6392;44.644;11.448;2023-12-20T12:54:58;8.30;99.90
12655;DHT22;6392;44.644;11.448;2023-12-20T12:57:25;8.30;99.90
12655;DHT22;6392;44.644;11.448;2023-12-20T12:59:52;8.30;99.90
12655;DHT22;6392;44.644;11.448;2023-12-20T13:02:20;8.20;99.90
12655;DHT22;6392;44.644;11.448;2023-12-20T13:04:47;8.20;99.90
12655;DHT22;6392;44.644;11.448;2023-12-20T13:07:14;8.10;99.90
12655;DHT22;6392;44.644;11.448;2023-12-20T13:09:41;8.10;99.90
12655;DHT22;6392;44.644;11.448;2023-12-20T13:12:10;8.10;99.90
12655;DHT22;6392;44.644;11.448;2023-12-20T13:14:37;8.10;99.90
12655;DHT22;6392;44.644;11.448;2023-12-20T13:17:04;8.00;99.90
12655;DHT22;6392;44.644;11.448;2023-12-20T13:19:31;8.00;99.90
12655;DHT22;6392;44.644;11.448;2023-12-20T13:21:59;8.00;99.90
12655;DHT22;6392;44.644;11.448;2023-12-20T13:24:26;8.00;99.90
12655;DHT22;6392;44.644;11.448;2023-12-20T13:26:53;8.00;99.90
12655;DHT22;6392;44.644;11.448;2023-12-20T13:29:21;7.90;99.90
12655;DHT22;6392;44.644;11.448;2023-12-20T13:31:49;7.90;99.90
12655;DHT22;6392;44.644;11.448;2023-12-20T13:34:16;7.90;99.90
12655;DHT22;6392;44.644;11.448;2023-12-20T13:36:43;7.90;99.90
12655;DHT22;6392;44.644;11.448;2023-12-20T13:39:13;7.90;99.90
12655;DHT22;6392;44.644;11.448;2023-12-20T13:41:40;7.90;99.90
12655;DHT22;6392;44.644;11.448;2023-12-20T13:44:07;7.90;99.90
12655;DHT22;6392;44.644;11.448;2023-12-20T13:46:36;7.90;99.90
12655;DHT22;6392;44.644;11.448;2023-12-20T13:49:03;7.90;99.90
12655;DHT22;6392;44.644;11.448;2023-12-20T13:51:30;7.90;99.90
12655;DHT22;6392;44.644;11.448;2023-12-20T13:53:57;7.80;99.90
12655;DHT22;6392;44.644;11.448;2023-12-20T13:56:25;7.90;99.90
12655;DHT22;6392;44.644;11.448;2023-12-20T13:58:52;7.80;99.90
12655;DHT22;6392;44.644;11.448;2023-12-20T14:01:19;7.80;99.90
12655;DHT22;6392;44.644;11.448;2023-12-20T14:03:47;7.80;99.90
12655;DHT22;6392;44.644;11.448;2023-12-20T14:06:15;7.80;99.90
12655;DHT22;6392;44.644;11.448;2023-12-20T14:08:43;7.80;99.90
12655;DHT22;6392;44.644;11.448;2023-12-20T14:11:10;7.80;99.90
12655;DHT22;6392;44.644;11.448;2023-12-20T14:13:38;7.80;99.90
12655;DHT22;6392;44.644;11.448;2023-12-20T14:16:05;7.80;99.90
12655;DHT22;6392;44.644;11.448;2023-12-20T14:18:32;7.80;99.90
12655;DHT22;6392;44.644;11.448;2023-12-20T14:21:00;7.70;99.90
12655;DHT22;6392;44.644;11.448;2023-12-20T14:23:28;7.70;99.90
12655;DHT22;6392;44.644;11.448;2023-12-20T14:25:55;7.70;99.90
12655;DHT22;6392;44.644;11.448;2023-12-20T14:28:24;7.70;99.90
12655;DHT22;6392;44.644;11.448;2023-12-20T14:30:51;7.70;99.90
12655;DHT22;6392;44.644;11.448;2023-12-20T14:33:18;7.70;99.90
12655;DHT22;6392;44.644;11.448;2023-12-20T14:35:47;7.70;99.90
12655;DHT22;6392;44.644;11.448;2023-12-20T14:38:16;7.70;99.90
12655;DHT22;6392;44.644;11.448;2023-12-20T14:40:43;7.70;99.90
12655;DHT22;6392;44.644;11.448;2023-12-20T14:43:10;7.70;99.90
12655;DHT22;6392;44.644;11.448;2023-12-20T14:45:37;7.70;99.90
12655;DHT22;6392;44.644;11.448;2023-12-20T14:48:05;7.70;99.90
12655;DHT22;6392;44.644;11.448;2023-12-20T14:50:32;7.70;99.90
12655;DHT22;6392;44.644;11.448;2023-12-20T14:53:00;7.70;99.90
12655;DHT22;6392;44.644;11.448;2023-12-20T14:55:28;7.70;99.90
12655;DHT22;6392;44.644;11.448;2023-12-20T14:57:55;7.70;99.90
12655;DHT22;6392;44.644;11.448;2023-12-20T15:00:22;7.60;99.90
12655;DHT22;6392;44.644;11.448;2023-12-20T15:02:49;7.60;99.90
12655;DHT22;6392;44.644;11.448;2023-12-20T15:05:16;7.60;99.90
12655;DHT22;6392;44.644;11.448;2023-12-20T15:07:44;7.60;99.90
12655;DHT22;6392;44.644;11.448;2023-12-20T15:10:12;7.50;99.90
12655;DHT22;6392;44.644;11.448;2023-12-20T15:12:41;7.50;99.90
12655;DHT22;6392;44.644;11.448;2023-12-20T15:15:09;7.50;99.90
12655;DHT22;6392;44.644;11.448;2023-12-20T15:17:36;7.50;99.90
12655;DHT22;6392;44.644;11.448;2023-12-20T15:20:04;7.50;99.90
12655;DHT22;6392;44.644;11.448;2023-12-20T15:22:31;7.50;99.90
12655;DHT22;6392;44.644;11.448;2023-12-20T15:24:59;7.50;99.90
12655;DHT22;6392;44.644;11.448;2023-12-20T15:27:27;7.40;99.90
12655;DHT22;6392;44.644;11.448;2023-12-20T15:29:55;7.40;99.90
12655;DHT22;6392;44.644;11.448;2023-12-20T15:32:22;7.40;99.90
12655;DHT22;6392;44.644;11.448;2023-12-20T15:34:49;7.40;99.90
12655;DHT22;6392;44.644;11.448;2023-12-20T15:37:17;7.30;99.90
12655;DHT22;6392;44.644;11.448;2023-12-20T15:39:44;7.30;99.90
12655;DHT22;6392;44.644;11.448;2023-12-20T15:42:12;7.30;99.90
12655;DHT22;6392;44.644;11.448;2023-12-20T15:44:39;7.20;99.90
12655;DHT22;6392;44.644;11.448;2023-12-20T15:47:07;7.20;99.90